Time;durP1;ratioP1;P1;durP2;ratioP2;P2;SDS_P1;SDS_P2;PMS_P1;PMS_P2;Temp;Humidity;BMP_temperature;BMP_pressure;BME280_temperature;BME280_humidity;BME280_pressure;Samples;Min_cycle;Max_cycle;Signal;HPM_P1;HPM_P2
2022/12/26 00:01:25;;;;;;;101.40;44.70;;;;;;;3.38;100.00;98699.60;213852;1312;22481;-77
2022/12/26 00:06:29;;;;;;;107.40;49.80;;;;;;;3.40;100.00;98696.05;213838;1312;24434;-77
2022/12/26 00:11:30;;;;;;;111.40;51.30;;;;;;;3.43;100.00;98704.27;213634;1304;22434;-77
2022/12/26 00:16:40;;;;;;;98.10;46.30;;;;;;;3.48;100.00;98687.87;213674;1312;22502;-76
2022/12/26 00:21:42;;;;;;;90.90;41.60;;;;;;;3.53;100.00;98684.86;213797;1298;22615;-75
2022/12/26 00:26:44;;;;;;;88.90;39.70;;;;;;;3.60;100.00;98688.92;213844;1312;23075;-77
2022/12/26 00:31:46;;;;;;;78.60;35.90;;;;;;;3.68;100.00;98687.02;213783;1312;22510;-76
2022/12/26 00:36:48;;;;;;;55.20;26.50;;;;;;;3.76;100.00;98687.81;213792;1312;25302;-75
2022/12/26 00:41:50;;;;;;;52.30;24.80;;;;;;;3.87;100.00;98684.88;213749;1312;25194;-75
2022/12/26 00:46:51;;;;;;;47.60;23.00;;;;;;;3.98;100.00;98676.95;213650;1312;25368;-76
2022/12/26 00:51:53;;;;;;;40.10;20.50;;;;;;;4.07;100.00;98684.06;213736;1312;22968;-77
2022/12/26 00:56:55;;;;;;;46.00;21.90;;;;;;;4.14;100.00;98685.73;213845;1312;25218;-77
2022/12/26 01:01:57;;;;;;;39.70;20.40;;;;;;;4.17;100.00;98671.07;213746;1312;22746;-76
2022/12/26 01:06:59;;;;;;;46.90;20.50;;;;;;;4.21;100.00;98672.97;213978;1304;23772;-77
2022/12/26 01:12:01;;;;;;;45.30;23.10;;;;;;;4.24;100.00;98665.58;213773;1312;24335;-76
2022/12/26 01:17:02;;;;;;;42.30;22.40;;;;;;;4.27;100.00;98670.38;213733;1312;22536;-76
2022/12/26 01:22:04;;;;;;;46.00;22.70;;;;;;;4.32;100.00;98669.10;213626;1312;22529;-77
2022/12/26 01:27:06;;;;;;;44.40;21.80;;;;;;;4.38;100.00;98673.14;213775;1312;23793;-76
2022/12/26 01:32:08;;;;;;;40.50;21.60;;;;;;;4.45;100.00;98685.42;213843;1298;25248;-76
2022/12/26 01:37:12;;;;;;;41.90;21.40;;;;;;;4.53;100.00;98681.45;213781;1312;24915;-76
2022/12/26 01:42:20;;;;;;;40.10;20.90;;;;;;;4.61;100.00;98672.14;213750;1298;22962;-77
2022/12/26 01:47:24;;;;;;;38.80;19.50;;;;;;;4.68;100.00;98667.58;213859;1312;22460;-76
2022/12/26 01:52:37;;;;;;;39.10;20.60;;;;;;;4.74;100.00;98659.84;213960;1304;22506;-76
2022/12/26 01:57:46;;;;;;;43.60;21.10;;;;;;;4.80;100.00;98648.48;213723;1312;22507;-77
2022/12/26 02:08:21;;;;;;;39.60;18.20;;;;;;;4.90;100.00;98610.91;213869;1304;22478;-77
2022/12/26 02:13:24;;;;;;;32.50;17.00;;;;;;;4.92;100.00;98577.95;213701;1312;25348;-77
2022/12/26 02:18:25;;;;;;;36.60;18.80;;;;;;;4.90;100.00;98598.08;213771;1312;23797;-76
2022/12/26 02:24:15;;;;;;;34.30;16.70;;;;;;;4.85;100.00;98597.71;213644;1312;22496;-77
2022/12/26 02:29:30;;;;;;;35.10;17.00;;;;;;;4.79;100.00;98595.29;212269;1320;22571;-76
2022/12/26 02:35:15;;;;;;;31.40;14.90;;;;;;;4.75;100.00;98593.29;213577;1312;25381;-76
2022/12/26 02:40:30;;;;;;;34.00;17.70;;;;;;;4.71;100.00;98581.85;213966;1312;24297;-77
2022/12/26 03:13:49;;;;;;;29.60;16.20;;;;;;;4.74;100.00;98549.02;213701;1311;23269;-76
2022/12/26 03:18:57;;;;;;;34.50;16.70;;;;;;;4.77;100.00;98559.13;213637;1312;22458;-77
2022/12/26 03:24:01;;;;;;;31.10;16.60;;;;;;;4.78;100.00;98564.21;213575;1303;22484;-76
2022/12/26 03:34:24;;;;;;;30.50;15.00;;;;;;;4.80;100.00;98574.22;213881;1312;23782;-77
2022/12/26 04:45:16;;;;;;;8.90;5.60;;;;;;;6.65;100.00;98544.64;213850;1312;22471;-77
2022/12/26 04:50:18;;;;;;;7.90;4.80;;;;;;;6.70;100.00;98537.77;213530;1312;25270;-77
2022/12/26 04:55:20;;;;;;;7.80;5.60;;;;;;;6.69;100.00;98541.77;213605;1301;22483;-76
2022/12/26 05:00:24;;;;;;;8.90;5.60;;;;;;;6.72;100.00;98527.91;213881;1287;25466;-76
2022/12/26 05:10:46;;;;;;;9.50;5.70;;;;;;;6.83;100.00;98529.83;213813;1297;22620;-77
2022/12/26 05:31:57;;;;;;;11.80;5.50;;;;;;;6.91;100.00;98531.56;213817;1312;23178;-77
2022/12/26 05:37:01;;;;;;;8.20;5.60;;;;;;;6.96;100.00;98538.58;213782;1312;22489;-76
2022/12/26 05:42:03;;;;;;;8.20;5.50;;;;;;;7.01;100.00;98535.58;213710;1298;22604;-77
2022/12/26 05:47:05;;;;;;;8.80;5.20;;;;;;;7.07;100.00;98536.33;213813;1311;24081;-77
2022/12/26 05:52:06;;;;;;;7.30;5.60;;;;;;;7.12;100.00;98542.06;213805;1312;22520;-75
2022/12/26 05:57:08;;;;;;;8.40;5.50;;;;;;;7.15;100.00;98537.00;213824;1306;25306;-77
2022/12/26 06:02:10;;;;;;;8.30;5.70;;;;;;;7.17;100.00;98535.59;213431;1312;22575;-76
2022/12/26 06:07:12;;;;;;;8.20;5.40;;;;;;;7.25;100.00;98528.16;213824;1312;22521;-77
2022/12/26 06:12:14;;;;;;;7.80;5.50;;;;;;;7.29;100.00;98527.71;213796;1297;22488;-77
2022/12/26 06:17:16;;;;;;;9.70;5.70;;;;;;;7.33;100.00;98534.64;213798;1312;23784;-77
2022/12/26 06:22:18;;;;;;;8.20;5.20;;;;;;;7.37;100.00;98548.95;213744;1307;22556;-77
2022/12/26 06:27:19;;;;;;;8.80;5.00;;;;;;;7.41;100.00;98562.52;213606;1312;22482;-76
2022/12/26 06:32:21;;;;;;;8.60;6.10;;;;;;;7.44;100.00;98551.75;213783;1312;22629;-77
2022/12/26 06:37:23;;;;;;;10.60;6.60;;;;;;;7.46;100.00;98539.76;213706;1312;22522;-76
2022/12/26 06:42:25;;;;;;;11.60;6.20;;;;;;;7.45;100.00;98546.95;213548;1310;22528;-76
2022/12/26 06:47:27;;;;;;;9.80;6.10;;;;;;;7.48;100.00;98555.95;213654;1312;25402;-75
2022/12/26 06:52:29;;;;;;;11.20;7.30;;;;;;;7.50;100.00;98567.98;213820;1312;23763;-76
2022/12/26 06:57:31;;;;;;;9.00;6.20;;;;;;;7.50;100.00;98564.83;213775;1312;22563;-76
2022/12/26 07:02:33;;;;;;;10.10;5.90;;;;;;;7.49;100.00;98560.79;213857;1306;24403;-75
2022/12/26 07:07:35;;;;;;;12.50;6.90;;;;;;;7.53;100.00;98548.73;213657;1312;23791;-77
2022/12/26 07:12:36;;;;;;;10.30;6.40;;;;;;;7.58;100.00;98549.13;214003;1310;22494;-76
2022/12/26 07:17:38;;;;;;;10.50;6.60;;;;;;;7.61;100.00;98574.86;213917;1312;22512;-76
2022/12/26 07:22:40;;;;;;;11.80;7.10;;;;;;;7.66;100.00;98603.65;213741;1312;22454;-77
2022/12/26 07:27:42;;;;;;;14.00;7.30;;;;;;;7.70;100.00;98603.10;213662;1312;22508;-76
2022/12/26 07:32:43;;;;;;;12.00;7.20;;;;;;;7.73;100.00;98577.31;213621;1312;25247;-77
2022/12/26 07:37:45;;;;;;;9.50;6.60;;;;;;;7.75;100.00;98572.83;213814;1312;22550;-77
2022/12/26 07:42:47;;;;;;;15.20;7.50;;;;;;;7.74;100.00;98581.79;213629;1312;22501;-76
2022/12/26 07:47:53;;;;;;;11.50;7.60;;;;;;;7.74;100.00;98585.96;213895;1312;22489;-76
2022/12/26 07:52:54;;;;;;;12.90;7.10;;;;;;;7.73;100.00;98581.58;213848;1287;22958;-76
2022/12/26 07:57:56;;;;;;;11.10;6.60;;;;;;;7.70;100.00;98588.48;213662;1312;22982;-78
2022/12/26 08:02:59;;;;;;;12.70;7.40;;;;;;;7.69;100.00;98589.56;213865;1310;22517;-77
2022/12/26 08:08:08;;;;;;;15.10;7.80;;;;;;;7.67;100.00;98604.28;213701;1312;23911;-77
2022/12/26 08:13:10;;;;;;;12.00;8.30;;;;;;;7.67;100.00;98603.90;213757;1312;23040;-77
2022/12/26 08:18:11;;;;;;;12.80;7.50;;;;;;;7.66;100.00;98603.05;213885;1312;24225;-76
2022/12/26 08:23:13;;;;;;;14.70;8.60;;;;;;;7.66;100.00;98602.47;213716;1312;25436;-78
2022/12/26 08:28:15;;;;;;;13.50;7.70;;;;;;;7.67;100.00;98597.83;213769;1303;22471;-77
2022/12/26 08:33:17;;;;;;;13.30;7.80;;;;;;;7.66;100.00;98610.56;213706;1312;22528;-77
2022/12/26 08:38:19;;;;;;;12.60;7.60;;;;;;;7.67;100.00;98618.52;213616;1312;22506;-76
2022/12/26 08:43:22;;;;;;;15.80;8.50;;;;;;;7.63;100.00;98617.25;213817;1300;22480;-77
2022/12/26 08:48:45;;;;;;;14.00;7.50;;;;;;;7.57;100.00;98615.73;213864;1311;22549;-78
2022/12/26 08:53:49;;;;;;;11.80;7.70;;;;;;;7.51;100.00;98610.52;213641;1312;22983;-78
2022/12/26 08:58:50;;;;;;;13.50;7.40;;;;;;;7.46;100.00;98596.62;213584;1312;22577;-78
2022/12/26 09:03:54;;;;;;;12.60;7.80;;;;;;;7.42;100.00;98593.08;213742;1291;25272;-77
2022/12/26 09:08:58;;;;;;;14.10;8.10;;;;;;;7.38;100.00;98591.54;213875;1296;22533;-76
2022/12/26 09:14:01;;;;;;;12.30;7.50;;;;;;;7.33;100.00;98590.44;213870;1312;24087;-79
2022/12/26 09:19:05;;;;;;;16.10;8.80;;;;;;;7.26;100.00;98595.94;213579;1306;22470;-77
2022/12/26 09:24:11;;;;;;;17.10;9.20;;;;;;;7.25;100.00;98611.67;213669;1312;25010;-79
2022/12/26 09:29:13;;;;;;;23.50;12.50;;;;;;;7.23;100.00;98614.44;213615;1299;22615;-77
2022/12/26 09:34:15;;;;;;;15.20;9.50;;;;;;;7.22;100.00;98629.04;213732;1312;22552;-78
2022/12/26 09:39:17;;;;;;;15.80;9.40;;;;;;;7.21;100.00;98635.23;213871;1312;22625;-77
2022/12/26 09:44:26;;;;;;;16.60;9.40;;;;;;;7.21;100.00;98643.37;213665;1312;22725;-77
2022/12/26 09:49:33;;;;;;;16.70;10.50;;;;;;;7.23;100.00;98628.88;213717;1312;24852;-77
2022/12/26 09:54:42;;;;;;;15.80;9.40;;;;;;;7.26;100.00;98624.82;213696;1312;22504;-79
2022/12/26 09:59:56;;;;;;;17.60;10.90;;;;;;;7.27;100.00;98610.16;213843;1312;22547;-77
2022/12/26 10:04:58;;;;;;;18.00;9.80;;;;;;;7.30;100.00;98599.08;213671;1290;22472;-78
2022/12/26 10:10:09;;;;;;;18.20;9.80;;;;;;;7.34;100.00;98598.42;213780;1296;23898;-76
2022/12/26 10:15:26;;;;;;;19.40;10.70;;;;;;;7.38;100.00;98595.00;213733;1313;22572;-77
2022/12/26 10:20:46;;;;;;;18.10;10.70;;;;;;;7.41;100.00;98592.86;213655;1313;25286;-76
2022/12/26 10:25:54;;;;;;;;;;;;;;;7.42;100.00;98601.17;213819;1297;25274;-76
2022/12/26 10:31:01;;;;;;;13.80;8.80;;;;;;;7.44;100.00;98601.48;214089;1305;23231;-77
2022/12/26 10:36:03;;;;;;;14.50;8.90;;;;;;;7.47;100.00;98589.52;213830;1313;25250;-78
2022/12/26 10:41:13;;;;;;;14.80;9.40;;;;;;;7.54;100.00;98576.66;213667;1313;135363;-77
2022/12/26 10:46:28;;;;;;;16.80;9.50;;;;;;;7.63;100.00;98573.85;213668;1312;22480;-77
2022/12/26 10:51:31;;;;;;;17.00;9.70;;;;;;;7.73;100.00;98582.93;213721;1304;23744;-77
2022/12/26 10:56:33;;;;;;;17.60;9.40;;;;;;;7.80;100.00;98586.14;213770;1299;22677;-77
2022/12/26 11:01:37;;;;;;;20.10;10.10;;;;;;;7.87;100.00;98577.04;213765;1312;22568;-77
2022/12/26 11:06:42;;;;;;;14.60;8.20;;;;;;;7.92;100.00;98568.26;213711;1312;25373;-77
2022/12/26 11:11:50;;;;;;;16.40;9.00;;;;;;;7.97;100.00;98566.63;213665;1281;22567;-77
2022/12/26 11:16:53;;;;;;;17.00;9.50;;;;;;;8.03;100.00;98560.09;213981;1311;22517;-77
2022/12/26 11:22:19;;;;;;;17.00;9.50;;;;;;;8.08;100.00;98559.26;213899;1312;25274;-78
2022/12/26 11:27:23;;;;;;;18.00;9.50;;;;;;;8.13;100.00;98548.02;213749;1313;22819;-77
2022/12/26 11:32:26;;;;;;;19.60;10.50;;;;;;;8.18;100.00;98539.18;213639;1307;22507;-77
2022/12/26 11:37:33;;;;;;;19.20;10.40;;;;;;;8.20;100.00;98538.36;213775;1313;25055;-77
2022/12/26 11:42:35;;;;;;;16.30;10.00;;;;;;;8.22;100.00;98533.06;213396;1313;24860;-76
2022/12/26 11:47:44;;;;;;;17.90;9.60;;;;;;;8.28;100.00;98552.73;213811;1297;22503;-77
2022/12/26 11:52:55;;;;;;;18.10;9.20;;;;;;;8.35;100.00;98552.08;213829;1312;22494;-77
2022/12/26 11:58:09;;;;;;;17.50;8.10;;;;;;;8.43;100.00;98536.75;213658;1297;23610;-77
2022/12/26 12:03:15;;;;;;;15.80;8.50;;;;;;;8.50;100.00;98521.07;213680;1313;24291;-76
2022/12/26 12:08:20;;;;;;;14.20;8.30;;;;;;;8.59;100.00;98525.32;213651;1313;25395;-77
2022/12/26 12:13:57;;;;;;;16.80;8.80;;;;;;;8.70;100.00;98532.00;213664;1299;22493;-77
2022/12/26 12:19:02;;;;;;;18.00;9.20;;;;;;;8.83;100.00;98543.48;213722;1312;22578;-77
2022/12/26 12:24:39;;;;;;;16.40;8.90;;;;;;;8.94;100.00;98558.58;213768;1313;22555;-77
2022/12/26 12:29:50;;;;;;;15.40;8.40;;;;;;;9.04;99.85;98542.83;213695;1313;24370;-79
2022/12/26 12:35:20;;;;;;;15.20;7.90;;;;;;;9.12;99.84;98547.07;213611;1313;25355;-77
2022/12/26 12:40:31;;;;;;;13.50;8.10;;;;;;;9.21;99.54;98545.58;213720;1313;22475;-77
2022/12/26 12:45:44;;;;;;;17.00;8.10;;;;;;;9.25;99.32;98538.42;213660;1313;25388;-76
2022/12/26 12:51:23;;;;;;;16.20;8.20;;;;;;;9.27;98.61;98538.19;213796;1313;25450;-77
2022/12/26 12:56:55;;;;;;;15.80;8.20;;;;;;;9.29;98.66;98536.09;213664;1313;24378;-77
2022/12/26 13:02:03;;;;;;;15.90;8.80;;;;;;;9.30;98.34;98544.58;213795;1312;25437;-77
2022/12/26 13:07:26;;;;;;;15.40;8.50;;;;;;;9.33;97.62;98545.30;213870;1312;22477;-76
2022/12/26 13:12:47;;;;;;;15.40;8.20;;;;;;;9.36;97.33;98533.92;213773;1290;23338;-76
2022/12/26 13:17:56;;;;;;;13.10;7.20;;;;;;;9.39;97.70;98527.67;213749;1307;22536;-77
2022/12/26 13:28:31;;;;;;;11.80;6.60;;;;;;;9.42;97.51;98515.08;213841;1310;22482;-76
2022/12/26 13:33:34;;;;;;;12.80;7.40;;;;;;;9.44;97.02;98519.92;213685;1312;22492;-76
2022/12/26 13:38:54;;;;;;;11.80;6.50;;;;;;;9.45;96.68;98528.90;213789;1312;22603;-76
2022/12/26 13:44:23;;;;;;;12.40;6.90;;;;;;;9.44;96.73;98528.10;213846;1312;24630;-75
2022/12/26 13:49:37;;;;;;;11.40;6.00;;;;;;;9.44;96.52;98535.31;213820;1312;24367;-76
2022/12/26 13:54:45;;;;;;;11.40;5.90;;;;;;;9.45;96.24;98524.50;213864;1312;24270;-77
2022/12/26 13:59:55;;;;;;;10.30;5.90;;;;;;;9.43;96.06;98517.52;213771;1298;24119;-78
2022/12/26 14:05:20;;;;;;;9.30;5.40;;;;;;;9.40;95.83;98512.43;213994;1305;23232;-76
2022/12/26 14:10:25;;;;;;;10.10;5.80;;;;;;;9.36;95.43;98511.36;213759;1296;22594;-77
2022/12/26 14:15:55;;;;;;;11.10;5.50;;;;;;;9.33;95.03;98514.23;213752;1312;25428;-77
2022/12/26 14:21:12;;;;;;;;;;;;;;;9.30;95.06;98513.79;213665;1312;22457;-77
2022/12/26 14:26:49;;;;;;;9.10;6.30;;;;;;;9.23;95.24;98512.70;213881;1312;24288;-76
2022/12/26 14:32:28;;;;;;;12.00;6.00;;;;;;;9.17;95.52;98520.73;213784;1298;22491;-76
2022/12/26 14:37:43;;;;;;;11.20;5.90;;;;;;;9.14;95.53;98533.00;213867;1312;24552;-77
2022/12/26 14:43:15;;;;;;;11.00;5.60;;;;;;;9.12;95.39;98524.79;213894;1312;25297;-77
2022/12/26 14:48:17;;;;;;;10.30;5.80;;;;;;;9.11;94.91;98518.55;213847;1312;24282;-76
2022/12/26 14:53:28;;;;;;;9.90;6.20;;;;;;;9.12;94.56;98510.58;213682;1312;24346;-76
2022/12/26 14:58:30;;;;;;;12.80;6.70;;;;;;;9.11;94.65;98509.94;213812;1312;23205;-77
2022/12/26 15:04:08;;;;;;;9.60;5.30;;;;;;;9.10;94.53;98509.89;213675;1312;24341;-77
2022/12/26 15:09:44;;;;;;;11.80;6.50;;;;;;;9.11;94.31;98520.05;213918;1312;22471;-76
2022/12/26 15:15:20;;;;;;;12.20;6.30;;;;;;;9.13;94.37;98511.27;214061;1312;22484;-77
2022/12/26 15:20:56;;;;;;;11.20;6.20;;;;;;;9.12;94.39;98506.20;213670;1312;24344;-77
2022/12/26 15:26:31;;;;;;;13.70;6.50;;;;;;;9.11;94.54;98518.27;213900;1288;23226;-77
2022/12/26 15:31:43;;;;;;;12.80;6.50;;;;;;;9.12;94.36;98505.71;213852;1312;22473;-76
2022/12/26 15:36:54;;;;;;;13.50;7.20;;;;;;;9.10;94.21;98495.27;213685;1312;22672;-77
2022/12/26 15:42:12;;;;;;;13.60;6.50;;;;;;;9.10;94.16;98497.41;213735;1312;24333;-77
2022/12/26 15:47:43;;;;;;;11.60;6.20;;;;;;;9.08;94.09;98495.55;213870;1288;25644;-76
2022/12/26 15:52:57;;;;;;;11.60;5.90;;;;;;;9.06;93.94;98496.10;213752;1312;24999;-76
2022/12/26 15:58:14;;;;;;;12.20;6.20;;;;;;;9.04;93.93;98490.98;213865;1312;22499;-77
2022/12/26 16:03:44;;;;;;;12.10;6.40;;;;;;;9.04;94.06;98486.04;213695;1312;22975;-76
2022/12/26 16:08:57;;;;;;;;;;;;;;;9.02;93.93;98484.66;213862;1312;22502;-76
2022/12/26 16:14:02;;;;;;;14.30;7.00;;;;;;;9.00;94.25;98502.42;213657;1297;25266;-76
2022/12/26 16:19:36;;;;;;;12.70;6.30;;;;;;;8.97;94.74;98513.14;213654;1307;22491;-77
2022/12/26 16:24:41;;;;;;;14.40;6.60;;;;;;;8.81;95.75;98481.63;213519;1312;22504;-76
2022/12/26 16:29:59;;;;;;;12.40;6.50;;;;;;;8.61;97.16;98488.56;213903;1312;25330;-76
2022/12/26 16:35:15;;;;;;;11.40;6.70;;;;;;;8.48;98.53;98527.77;213855;1312;22508;-77
2022/12/26 16:40:23;;;;;;;12.80;6.90;;;;;;;8.35;99.24;98511.77;213719;1304;22497;-77
2022/12/26 16:45:26;;;;;;;12.00;6.40;;;;;;;8.24;99.72;98499.00;213875;1312;22665;-77
2022/12/26 16:50:31;;;;;;;12.70;6.40;;;;;;;8.14;100.00;98474.84;213747;1301;24082;-76
2022/12/26 16:55:40;;;;;;;13.10;6.50;;;;;;;8.05;100.00;98465.91;213834;1297;22636;-77
2022/12/26 17:00:50;;;;;;;9.90;6.30;;;;;;;7.98;100.00;98461.11;214042;1312;22606;-77
2022/12/26 17:05:52;;;;;;;11.10;6.50;;;;;;;7.91;100.00;98464.62;213900;1312;24299;-76
2022/12/26 17:10:54;;;;;;;10.40;6.60;;;;;;;7.86;100.00;98462.84;213884;1312;22474;-75
2022/12/26 17:15:58;;;;;;;10.20;6.40;;;;;;;7.82;100.00;98465.90;213802;1312;22641;-75
2022/12/26 17:21:18;;;;;;;12.40;6.90;;;;;;;7.80;100.00;98493.60;213665;1312;22499;-77
2022/12/26 17:26:23;;;;;;;10.40;7.00;;;;;;;7.79;100.00;98506.73;213706;1311;22491;-77
2022/12/26 17:31:31;;;;;;;14.80;8.70;;;;;;;7.79;100.00;98518.48;213880;1312;22643;-75
2022/12/26 17:36:33;;;;;;;18.00;9.40;;;;;;;7.77;100.00;98518.06;213858;1287;24296;-77
2022/12/26 17:41:58;;;;;;;16.90;8.10;;;;;;;7.73;100.00;98518.77;213737;1312;25278;-76
2022/12/26 17:47:05;;;;;;;16.90;8.40;;;;;;;7.69;100.00;98497.95;213919;1287;25230;-76
2022/12/26 17:52:10;;;;;;;15.40;8.40;;;;;;;7.65;100.00;98512.52;213698;1312;23066;-76
2022/12/26 17:57:21;;;;;;;14.40;9.00;;;;;;;7.61;100.00;98523.80;214008;1291;24080;-77
2022/12/26 18:02:23;;;;;;;16.10;9.10;;;;;;;7.56;100.00;98523.39;213845;1312;25302;-79
2022/12/26 18:07:25;;;;;;;17.30;10.00;;;;;;;7.50;100.00;98513.50;213797;1311;25305;-77
2022/12/26 18:12:32;;;;;;;17.20;9.30;;;;;;;7.47;100.00;98512.50;213905;1312;22543;-78
2022/12/26 18:17:34;;;;;;;17.60;9.60;;;;;;;7.45;100.00;98500.73;213764;1299;22523;-77
2022/12/26 18:22:36;;;;;;;16.20;9.50;;;;;;;7.43;100.00;98515.66;213807;1312;24443;-77
2022/12/26 18:27:37;;;;;;;18.50;9.90;;;;;;;7.40;100.00;98512.80;213901;1312;22541;-75
2022/12/26 18:32:40;;;;;;;16.80;9.40;;;;;;;7.36;100.00;98509.41;213760;1312;22474;-76
2022/12/26 18:37:46;;;;;;;16.80;9.70;;;;;;;7.34;100.00;98512.36;213664;1301;22523;-76
2022/12/26 18:42:48;;;;;;;15.70;9.10;;;;;;;7.32;100.00;98511.66;214186;1308;22513;-77
2022/12/26 18:47:50;;;;;;;16.00;8.70;;;;;;;7.30;100.00;98512.85;213700;1312;24204;-77
2022/12/26 18:52:53;;;;;;;13.50;8.00;;;;;;;7.30;100.00;98509.45;213665;1312;22475;-77
2022/12/26 18:57:56;;;;;;;16.80;9.30;;;;;;;7.34;100.00;98507.92;214067;1312;24900;-76
2022/12/26 19:02:58;;;;;;;14.80;7.30;;;;;;;7.40;100.00;98525.65;213899;1312;22491;-76
2022/12/26 19:08:01;;;;;;;11.20;6.70;;;;;;;7.45;100.00;98527.49;213978;1312;25470;-76
2022/12/26 19:13:03;;;;;;;12.50;6.60;;;;;;;7.47;100.00;98524.92;213711;1312;25846;-76
2022/12/26 19:18:07;;;;;;;11.60;7.60;;;;;;;7.48;100.00;98532.50;213725;1307;25272;-76
2022/12/26 19:23:09;;;;;;;12.90;7.70;;;;;;;7.50;100.00;98541.81;213772;1312;25294;-78
2022/12/26 19:28:11;;;;;;;12.00;7.10;;;;;;;7.52;100.00;98537.16;213871;1312;22505;-77
2022/12/26 19:33:13;;;;;;;13.00;7.70;;;;;;;7.53;100.00;98539.57;213934;1312;22505;-77
2022/12/26 19:38:15;;;;;;;14.10;8.00;;;;;;;7.50;100.00;98537.81;213811;1312;22487;-77
2022/12/26 19:43:16;;;;;;;14.30;8.00;;;;;;;7.49;100.00;98543.68;213670;1312;25265;-77
2022/12/26 19:48:18;;;;;;;11.20;7.50;;;;;;;7.49;100.00;98549.76;213952;1312;24342;-77
2022/12/26 19:53:20;;;;;;;13.10;7.00;;;;;;;7.51;100.00;98559.40;213941;1304;22617;-77
2022/12/26 19:58:23;;;;;;;15.00;8.70;;;;;;;7.51;100.00;98558.34;213872;1298;22949;-77
2022/12/26 20:03:24;;;;;;;13.10;8.30;;;;;;;7.51;100.00;98568.25;213726;1312;22502;-77
2022/12/26 20:08:26;;;;;;;13.50;8.20;;;;;;;7.54;100.00;98579.05;213868;1298;22469;-76
2022/12/26 20:13:28;;;;;;;13.40;8.40;;;;;;;7.57;100.00;98592.74;213765;1301;22642;-77
2022/12/26 20:18:30;;;;;;;13.90;7.40;;;;;;;7.57;100.00;98586.23;213809;1312;22472;-76
2022/12/26 20:23:34;;;;;;;12.40;7.90;;;;;;;7.58;100.00;98584.54;213674;1306;22546;-76
2022/12/26 20:28:36;;;;;;;13.20;7.50;;;;;;;7.55;100.00;98590.58;213690;1312;22484;-78
2022/12/26 20:33:40;;;;;;;15.60;8.00;;;;;;;7.49;100.00;98587.23;213820;1312;24261;-77
2022/12/26 20:38:44;;;;;;;12.80;7.70;;;;;;;7.41;100.00;98584.96;213711;1310;22607;-78
2022/12/26 20:43:48;;;;;;;15.80;7.90;;;;;;;7.33;100.00;98584.58;213840;1307;22578;-77
2022/12/26 20:48:51;;;;;;;13.20;7.90;;;;;;;7.27;100.00;98586.39;213705;1312;22494;-78
2022/12/26 20:53:53;;;;;;;14.00;8.70;;;;;;;7.22;100.00;98585.62;213785;1298;22500;-77
2022/12/26 20:58:57;;;;;;;13.90;8.10;;;;;;;7.17;100.00;98584.35;213891;1312;22523;-77
2022/12/26 21:04:00;;;;;;;14.60;8.70;;;;;;;7.13;100.00;98599.38;213767;1312;22545;-78
2022/12/26 21:09:05;;;;;;;14.90;8.40;;;;;;;7.09;100.00;98598.27;213577;1312;25405;-78
2022/12/26 21:14:11;;;;;;;17.90;9.90;;;;;;;7.05;100.00;98605.84;213827;1312;22505;-78
2022/12/26 21:19:15;;;;;;;19.40;10.20;;;;;;;7.01;100.00;98613.09;213769;1312;22924;-78
2022/12/26 21:24:21;;;;;;;17.20;10.20;;;;;;;6.97;100.00;98607.77;213804;1312;22474;-77
2022/12/26 21:29:29;;;;;;;20.00;9.70;;;;;;;6.94;100.00;98597.50;213940;1312;22637;-76
2022/12/26 21:34:32;;;;;;;16.40;9.60;;;;;;;6.94;100.00;98604.04;213628;1312;22475;-77
2022/12/26 21:39:35;;;;;;;16.20;9.90;;;;;;;6.96;100.00;98597.48;213713;1298;22487;-79
2022/12/26 21:44:37;;;;;;;20.40;11.00;;;;;;;6.97;100.00;98586.20;214017;1312;25350;-76
2022/12/26 21:49:39;;;;;;;17.80;9.70;;;;;;;6.99;100.00;98575.91;213692;1312;24485;-77
2022/12/26 22:00:03;;;;;;;17.80;9.60;;;;;;;7.05;100.00;98579.79;213845;1312;25389;-77
2022/12/26 22:05:06;;;;;;;19.00;10.10;;;;;;;7.06;100.00;98570.04;213804;1312;25340;-77
2022/12/26 22:12:55;;;;;;;20.00;10.90;;;;;;;7.07;100.00;98564.27;213841;1289;22498;-78
2022/12/26 22:20:51;;;;;;;19.60;10.50;;;;;;;7.10;100.00;98558.48;213943;1311;24356;-77
2022/12/26 22:25:54;;;;;;;17.80;10.50;;;;;;;7.10;100.00;98561.77;213549;1290;25335;-77
2022/12/26 22:30:58;;;;;;;15.40;8.50;;;;;;;7.11;100.00;98557.73;213847;1313;22517;-77
2022/12/26 22:36:07;;;;;;;18.10;10.20;;;;;;;7.12;100.00;98562.30;213473;1308;22609;-77
2022/12/26 22:41:09;;;;;;;21.10;10.70;;;;;;;7.14;100.00;98551.05;213559;1314;148817;-77
2022/12/26 22:46:12;;;;;;;18.30;10.00;;;;;;;7.15;100.00;98541.88;213539;1313;22667;-77
2022/12/26 22:51:20;;;;;;;18.70;10.30;;;;;;;7.15;100.00;98538.44;213670;1313;22504;-77
2022/12/26 22:56:22;;;;;;;18.70;10.60;;;;;;;7.13;100.00;98538.10;213648;1299;22963;-77
2022/12/26 23:01:23;;;;;;;21.30;11.10;;;;;;;7.10;100.00;98534.34;213807;1312;22510;-77
2022/12/26 23:06:34;;;;;;;20.00;10.80;;;;;;;7.08;100.00;98542.38;213592;1312;22621;-76
2022/12/26 23:11:36;;;;;;;17.10;10.30;;;;;;;7.07;100.00;98540.36;213943;1312;22516;-76
2022/12/26 23:16:55;;;;;;;18.10;10.10;;;;;;;7.05;100.00;98522.70;213776;1312;23024;-77
2022/12/26 23:21:59;;;;;;;16.70;8.60;;;;;;;7.06;100.00;98511.98;213878;1303;22524;-77
2022/12/26 23:32:26;;;;;;;15.90;8.40;;;;;;;7.07;100.00;98501.85;213851;1312;22523;-78
2022/12/26 23:37:28;;;;;;;12.80;8.20;;;;;;;7.08;100.00;98502.86;213672;1312;24470;-77
2022/12/26 23:42:30;;;;;;;12.90;8.00;;;;;;;7.10;100.00;98501.89;213704;1312;23206;-77
2022/12/26 23:47:34;;;;;;;14.50;7.90;;;;;;;7.10;100.00;98500.83;213839;1310;22482;-76
2022/12/26 23:52:36;;;;;;;12.50;7.30;;;;;;;7.12;100.00;98496.19;213678;1297;22484;-76
2022/12/26 23:57:38;;;;;;;12.00;7.10;;;;;;;7.14;100.00;98484.83;213836;1312;22613;-77
